createdAt,value
2023-04-14T00:00:20.143Z,40.44
2023-04-14T00:00:41.827Z,40.35
2023-04-14T00:01:03.526Z,40.42
2023-04-14T00:01:27.388Z,40.51
2023-04-14T00:01:50.100Z,40.29
2023-04-14T00:02:11.772Z,40.36
2023-04-14T00:02:35.496Z,40.35
2023-04-14T00:02:57.400Z,40.39
2023-04-14T00:03:20.502Z,40.30
2023-04-14T00:03:42.414Z,40.08
2023-04-14T00:04:04.423Z,40.15
2023-04-14T00:04:26.734Z,39.80
2023-04-14T00:04:52.998Z,39.89
2023-04-14T00:05:14.875Z,40.21
2023-04-14T00:05:36.608Z,40.31
2023-04-14T00:05:59.215Z,40.29
2023-04-14T00:06:20.866Z,40.03
2023-04-14T00:06:42.731Z,39.94
2023-04-14T00:07:04.369Z,40.23
2023-04-14T00:07:26.024Z,39.92
2023-04-14T00:07:47.669Z,39.89
2023-04-14T00:08:10.333Z,40.13
2023-04-14T00:08:31.944Z,40.07
2023-04-14T00:08:53.572Z,40.05
2023-04-14T00:09:15.343Z,39.96
2023-04-14T00:09:37.928Z,40.05
2023-04-14T00:09:59.576Z,40.15
2023-04-14T00:10:21.550Z,40.31
2023-04-14T00:10:45.230Z,40.27
2023-04-14T00:11:07.784Z,39.98
2023-04-14T00:11:29.405Z,39.90
2023-04-14T00:11:51.499Z,40.00
2023-04-14T00:12:14.345Z,39.75
2023-04-14T00:12:37.977Z,39.79
2023-04-14T00:13:01.671Z,39.96
2023-04-14T00:13:25.029Z,39.78
2023-04-14T00:13:46.774Z,40.25
2023-04-14T00:14:10.040Z,40.28
2023-04-14T00:14:34.008Z,40.38
2023-04-14T00:14:56.113Z,40.32
2023-04-14T00:15:19.358Z,40.40
2023-04-14T00:15:42.289Z,40.29
2023-04-14T00:16:04.838Z,40.29
2023-04-14T00:16:28.694Z,40.08
2023-04-14T00:16:50.530Z,40.24
2023-04-14T00:17:13.474Z,40.55
2023-04-14T00:17:40.133Z,40.44
2023-04-14T00:18:06.661Z,40.30
2023-04-14T00:18:29.826Z,40.39
2023-04-14T00:18:55.323Z,40.41
2023-04-14T00:19:17.266Z,40.62
2023-04-14T00:19:40.992Z,40.67
2023-04-14T00:20:04.523Z,40.78
2023-04-14T00:20:27.870Z,40.66
2023-04-14T00:20:50.410Z,40.84
2023-04-14T00:21:14.200Z,40.83
2023-04-14T00:21:36.242Z,40.69
2023-04-14T00:22:03.807Z,40.92
2023-04-14T00:23:18.720Z,40.76
2023-04-14T00:23:41.681Z,40.66
2023-04-14T00:24:03.554Z,40.81
2023-04-14T00:24:25.427Z,40.86
2023-04-14T00:24:47.087Z,40.90
2023-04-14T00:25:09.330Z,40.88
2023-04-14T00:25:31.921Z,40.58
2023-04-14T00:25:54.226Z,40.92
2023-04-14T00:26:16.017Z,41.17
2023-04-14T00:26:39.408Z,41.17
2023-04-14T00:27:02.044Z,41.38
2023-04-14T00:27:23.892Z,41.22
2023-04-14T00:27:45.543Z,41.34
2023-04-14T00:28:07.322Z,41.40
2023-04-14T00:29:04.478Z,41.95
2023-04-14T00:29:26.227Z,41.76
2023-04-14T00:29:48.352Z,41.79
2023-04-14T00:30:10.801Z,42.14
2023-04-14T00:30:34.709Z,41.97
2023-04-14T00:30:57.382Z,41.88
2023-04-14T00:31:19.430Z,42.22
2023-04-14T00:31:41.171Z,42.40
2023-04-14T00:32:03.830Z,42.68
2023-04-14T00:32:26.916Z,42.29
2023-04-14T00:32:48.603Z,42.24
2023-04-14T00:33:11.008Z,42.31
2023-04-14T00:33:33.725Z,42.60
2023-04-14T00:33:56.661Z,42.54
2023-04-14T00:34:18.323Z,42.56
2023-04-14T00:34:39.981Z,42.61
2023-04-14T00:35:04.332Z,42.52
2023-04-14T00:35:26.066Z,42.56
2023-04-14T00:35:48.098Z,42.58
2023-04-14T00:36:09.843Z,42.67
2023-04-14T00:36:32.149Z,42.36
2023-04-14T00:36:54.950Z,42.48
2023-04-14T00:37:17.395Z,42.50
2023-04-14T00:37:39.049Z,42.61
2023-04-14T00:38:00.670Z,42.70
2023-04-14T00:38:25.807Z,42.79
2023-04-14T00:38:48.749Z,42.85
2023-04-14T00:39:10.410Z,42.71
2023-04-14T00:39:32.080Z,42.57
2023-04-14T00:39:56.024Z,42.71
2023-04-14T00:40:18.067Z,42.88
2023-04-14T00:40:40.839Z,42.90
2023-04-14T00:41:02.556Z,42.88
2023-04-14T00:41:25.738Z,42.75
2023-04-14T00:41:47.417Z,42.88
2023-04-14T00:42:09.109Z,42.81
2023-04-14T00:42:31.872Z,42.81
2023-04-14T00:42:54.722Z,42.86
2023-04-14T00:43:18.169Z,42.72
2023-04-14T00:43:41.145Z,42.79
2023-04-14T00:44:03.090Z,42.86
2023-04-14T00:44:26.333Z,42.90
2023-04-14T00:44:49.017Z,42.94
2023-04-14T00:45:11.741Z,42.91
2023-04-14T00:45:41.192Z,42.75
2023-04-14T00:46:04.028Z,42.81
2023-04-14T00:46:28.616Z,42.89
2023-04-14T00:46:51.615Z,42.78
2023-04-14T00:47:13.518Z,42.69
2023-04-14T00:47:35.293Z,42.54
2023-04-14T00:47:59.385Z,42.53
2023-04-14T00:48:21.237Z,42.70
2023-04-14T00:48:42.965Z,42.57
2023-04-14T00:49:04.912Z,42.83
2023-04-14T00:49:30.648Z,42.82
2023-04-14T00:49:53.459Z,42.84
2023-04-14T00:50:18.285Z,42.83
2023-04-14T00:50:40.549Z,42.82
2023-04-14T00:51:03.765Z,42.93
2023-04-14T00:51:28.126Z,43.08
2023-04-14T00:51:50.423Z,43.02
2023-04-14T00:52:12.555Z,42.81
2023-04-14T00:52:34.252Z,42.82
2023-04-14T00:52:57.537Z,42.61
2023-04-14T00:53:20.076Z,42.77
2023-04-14T00:53:42.531Z,42.99
2023-04-14T00:54:07.047Z,42.78
2023-04-14T00:54:31.167Z,42.76
2023-04-14T00:54:54.185Z,42.81
2023-04-14T00:55:19.991Z,42.89
2023-04-14T00:55:42.064Z,43.05
2023-04-14T00:56:05.338Z,42.94
2023-04-14T00:56:27.872Z,42.89
2023-04-14T00:56:50.372Z,43.24
2023-04-14T00:57:12.101Z,43.04
2023-04-14T00:57:35.341Z,43.02
2023-04-14T00:57:57.190Z,43.00
2023-04-14T00:58:19.854Z,43.07
2023-04-14T00:58:43.030Z,42.83
2023-04-14T00:59:08.209Z,43.07
2023-04-14T00:59:30.244Z,43.04
2023-04-14T00:59:52.686Z,43.13
2023-04-14T01:00:15.907Z,43.00
2023-04-14T01:00:38.818Z,43.21
2023-04-14T01:01:01.812Z,43.25
2023-04-14T01:01:24.868Z,43.52
2023-04-14T01:01:47.080Z,43.46
2023-04-14T01:02:08.957Z,43.36
2023-04-14T01:02:34.087Z,43.11
2023-04-14T01:02:56.227Z,43.08
2023-04-14T01:03:18.182Z,43.03
2023-04-14T01:03:40.913Z,43.21
2023-04-14T01:04:04.508Z,43.13
2023-04-14T01:04:36.688Z,43.08
2023-04-14T01:05:07.317Z,43.04
2023-04-14T01:05:30.541Z,43.12
2023-04-14T01:05:52.425Z,43.06
2023-04-14T01:06:14.122Z,43.11
2023-04-14T01:06:36.591Z,43.29
2023-04-14T01:06:58.349Z,43.53
2023-04-14T01:07:22.642Z,43.47
2023-04-14T01:07:44.737Z,43.36
2023-04-14T01:08:06.550Z,43.24
2023-04-14T01:08:29.043Z,43.28
2023-04-14T01:08:52.007Z,43.63
2023-04-14T01:09:15.857Z,43.71
2023-04-14T01:09:37.644Z,43.73
2023-04-14T01:10:01.220Z,43.87
2023-04-14T01:10:32.658Z,43.79
2023-04-14T01:11:09.764Z,43.89
2023-04-14T01:11:37.267Z,43.89
2023-04-14T01:12:04.712Z,43.65
2023-04-14T01:12:44.468Z,43.78
2023-04-14T01:13:21.099Z,43.65
2023-04-14T01:13:53.861Z,43.40
2023-04-14T01:14:24.736Z,43.67
2023-04-14T01:14:55.132Z,43.69
2023-04-14T01:15:27.475Z,43.42
2023-04-14T01:15:57.482Z,43.73
2023-04-14T01:16:27.275Z,43.55
2023-04-14T01:16:54.510Z,43.59
2023-04-14T01:17:22.806Z,43.57
2023-04-14T01:17:49.799Z,43.67
2023-04-14T01:18:20.353Z,43.70
2023-04-14T01:18:52.068Z,43.54
2023-04-14T01:19:34.895Z,43.78
2023-04-14T01:20:19.030Z,43.83
2023-04-14T01:20:42.501Z,43.81
2023-04-14T01:21:09.918Z,43.86
2023-04-14T01:21:38.300Z,43.92
2023-04-14T01:22:05.656Z,44.03
2023-04-14T01:22:31.273Z,44.01
2023-04-14T01:22:59.644Z,44.03
2023-04-14T01:23:25.793Z,44.13
2023-04-14T01:24:47.117Z,44.15
2023-04-14T01:25:56.846Z,44.10
2023-04-14T01:26:22.856Z,44.04
2023-04-14T01:26:45.724Z,44.13
2023-04-14T01:27:23.693Z,44.28
2023-04-14T01:27:57.186Z,44.33
2023-04-14T01:28:38.459Z,44.53
2023-04-14T01:29:24.779Z,44.67
2023-04-14T01:30:00.565Z,44.96
2023-04-14T01:30:36.390Z,45.07
2023-04-14T01:31:10.117Z,45.13
2023-04-14T01:31:41.267Z,45.19
2023-04-14T01:32:06.565Z,45.25
2023-04-14T01:32:34.770Z,45.21
2023-04-14T01:33:04.285Z,45.35
2023-04-14T01:33:31.012Z,45.35
2023-04-14T01:33:57.828Z,45.47
2023-04-14T01:34:30.483Z,45.78
2023-04-14T01:34:55.899Z,45.78
2023-04-14T01:35:23.870Z,45.67
2023-04-14T01:35:51.651Z,45.65
2023-04-14T01:36:18.904Z,45.67
2023-04-14T01:36:44.102Z,45.76
2023-04-14T01:37:12.582Z,45.60
2023-04-14T01:37:39.297Z,45.66
2023-04-14T01:38:08.635Z,45.68
2023-04-14T01:38:34.288Z,45.68
2023-04-14T01:38:57.757Z,45.70
2023-04-14T01:39:24.512Z,45.72
2023-04-14T01:39:52.343Z,45.59
2023-04-14T01:40:18.359Z,45.75
2023-04-14T01:40:43.040Z,45.59
2023-04-14T01:41:09.299Z,45.66
2023-04-14T01:41:33.045Z,45.58
2023-04-14T01:41:58.124Z,45.59
2023-04-14T01:42:25.135Z,45.57
2023-04-14T01:42:53.007Z,45.66
2023-04-14T01:43:17.632Z,45.62
2023-04-14T01:43:43.455Z,45.49
2023-04-14T01:44:07.201Z,45.61
2023-04-14T01:44:31.242Z,45.67
2023-04-14T01:45:05.110Z,45.61
2023-04-14T01:45:28.907Z,45.66
2023-04-14T01:45:52.536Z,45.55
2023-04-14T01:46:18.707Z,45.65
2023-04-14T01:46:41.768Z,45.73
2023-04-14T01:47:07.724Z,45.83
2023-04-14T01:47:30.977Z,45.88
2023-04-14T01:47:55.380Z,45.87
2023-04-14T01:48:19.389Z,45.77
2023-04-14T01:48:41.552Z,45.96
2023-04-14T01:49:04.162Z,45.89
2023-04-14T01:49:27.974Z,45.94
2023-04-14T01:49:53.661Z,45.85
2023-04-14T01:50:17.742Z,45.98
2023-04-14T01:50:42.059Z,45.93
2023-04-14T01:51:05.953Z,46.08
2023-04-14T01:51:30.983Z,45.99
2023-04-14T01:51:55.397Z,46.09
2023-04-14T01:52:19.061Z,46.17
2023-04-14T01:52:44.479Z,46.29
2023-04-14T01:53:08.906Z,46.38
2023-04-14T01:53:32.796Z,46.36
2023-04-14T01:53:57.394Z,46.31
2023-04-14T01:54:21.787Z,46.27
2023-04-14T01:54:47.997Z,46.19
2023-04-14T01:55:11.521Z,46.14
2023-04-14T01:55:38.793Z,46.17
2023-04-14T01:56:01.695Z,46.19
2023-04-14T01:56:26.649Z,46.41
2023-04-14T01:56:50.535Z,46.36
2023-04-14T01:57:14.559Z,46.35
2023-04-14T01:57:39.298Z,46.36
2023-04-14T01:58:02.455Z,46.38
2023-04-14T01:58:28.602Z,46.26
2023-04-14T01:58:53.236Z,46.24
2023-04-14T01:59:17.664Z,46.27
2023-04-14T01:59:41.574Z,46.51
2023-04-14T02:00:09.970Z,46.36
2023-04-14T02:00:41.637Z,46.30
2023-04-14T02:01:06.215Z,46.18
2023-04-14T02:01:31.390Z,46.08
2023-04-14T02:01:53.343Z,46.17
2023-04-14T02:02:17.508Z,46.23
2023-04-14T02:02:42.771Z,46.22
2023-04-14T02:03:06.250Z,46.16
2023-04-14T02:03:29.763Z,46.36
2023-04-14T02:03:51.624Z,46.48
2023-04-14T02:04:15.880Z,46.38
2023-04-14T02:04:41.502Z,46.40
2023-04-14T02:05:07.237Z,46.34
2023-04-14T02:05:33.135Z,46.39
2023-04-14T02:05:55.973Z,46.36
2023-04-14T02:06:20.497Z,46.34
2023-04-14T02:06:44.126Z,46.46
2023-04-14T02:07:07.888Z,46.38
2023-04-14T02:07:31.570Z,46.45
2023-04-14T02:07:54.745Z,46.33
2023-04-14T02:08:19.098Z,46.49
2023-04-14T02:08:43.874Z,46.56
2023-04-14T02:09:10.267Z,46.07
2023-04-14T02:09:32.926Z,46.36
2023-04-14T02:09:58.542Z,46.43
2023-04-14T02:10:22.674Z,46.42
2023-04-14T02:10:48.126Z,46.28
2023-04-14T02:11:12.900Z,46.31
2023-04-14T02:11:35.923Z,46.33
2023-04-14T02:12:00.711Z,46.34
2023-04-14T02:12:24.554Z,46.38
2023-04-14T02:12:48.205Z,46.40
2023-04-14T02:13:13.321Z,46.41
2023-04-14T02:13:36.982Z,46.40
2023-04-14T02:14:00.598Z,46.30
2023-04-14T02:14:23.724Z,46.42
2023-04-14T02:14:46.696Z,46.49
2023-04-14T02:15:13.625Z,46.50
2023-04-14T02:15:36.000Z,46.35
2023-04-14T02:16:00.751Z,46.29
2023-04-14T02:16:24.825Z,46.25
2023-04-14T02:16:49.516Z,46.29
2023-04-14T02:17:12.330Z,46.14
2023-04-14T02:17:35.901Z,46.21
2023-04-14T02:17:58.868Z,46.23
2023-04-14T02:18:23.044Z,46.22
2023-04-14T02:18:46.502Z,46.30
2023-04-14T02:19:09.080Z,46.24
2023-04-14T02:19:34.072Z,46.23
2023-04-14T02:19:59.561Z,46.43
2023-04-14T02:20:21.916Z,46.43
2023-04-14T02:20:46.894Z,46.34
2023-04-14T02:21:10.168Z,46.28
2023-04-14T02:21:34.624Z,46.20
2023-04-14T02:21:58.687Z,46.25
2023-04-14T02:22:20.749Z,46.26
2023-04-14T02:22:42.959Z,46.30
2023-04-14T02:23:05.596Z,46.27
2023-04-14T02:23:28.202Z,46.21
2023-04-14T02:23:51.344Z,46.11
2023-04-14T02:24:12.934Z,46.02
2023-04-14T02:24:34.659Z,46.13
2023-04-14T02:24:57.787Z,46.26
2023-04-14T02:25:23.358Z,46.15
2023-04-14T02:25:51.093Z,46.07
2023-04-14T02:26:16.153Z,46.05
2023-04-14T02:26:42.765Z,46.05
2023-04-14T02:27:08.784Z,46.14
2023-04-14T02:27:36.038Z,46.08
2023-04-14T02:28:02.337Z,46.01
2023-04-14T02:28:30.180Z,45.99
2023-04-14T02:29:01.064Z,46.07
2023-04-14T02:29:26.104Z,46.07
2023-04-14T02:29:53.415Z,46.20
2023-04-14T02:30:21.544Z,46.19
2023-04-14T02:30:49.334Z,46.13
2023-04-14T02:31:16.701Z,46.11
2023-04-14T02:31:43.426Z,46.20
2023-04-14T02:32:11.354Z,46.17
2023-04-14T02:32:35.760Z,46.16
2023-04-14T02:33:02.011Z,46.07
2023-04-14T02:33:31.497Z,46.16
2023-04-14T02:33:57.417Z,46.22
2023-04-14T02:34:25.266Z,46.02
2023-04-14T02:34:52.418Z,46.19
2023-04-14T02:35:18.443Z,46.44
2023-04-14T02:35:46.986Z,46.47
2023-04-14T02:36:17.117Z,46.22
2023-04-14T02:36:42.544Z,46.11
2023-04-14T02:37:14.284Z,46.03
2023-04-14T02:37:40.934Z,45.97
2023-04-14T02:38:08.245Z,45.92
2023-04-14T02:38:35.923Z,46.00
2023-04-14T02:39:02.482Z,46.12
2023-04-14T02:39:31.709Z,45.92
2023-04-14T02:40:01.847Z,45.92
2023-04-14T02:40:28.030Z,45.91
2023-04-14T02:40:50.771Z,45.99
2023-04-14T02:41:20.192Z,45.97
2023-04-14T02:41:46.246Z,45.98
2023-04-14T02:42:13.680Z,46.04
2023-04-14T02:42:40.991Z,45.99
2023-04-14T02:43:07.415Z,45.94
2023-04-14T02:43:33.197Z,46.01
2023-04-14T02:44:05.141Z,45.93
2023-04-14T02:44:31.073Z,45.93
2023-04-14T02:45:01.202Z,45.99
2023-04-14T02:45:26.181Z,46.10
2023-04-14T02:45:50.775Z,46.20
2023-04-14T02:46:16.413Z,46.20
2023-04-14T02:46:43.632Z,46.22
2023-04-14T02:47:10.181Z,46.35
2023-04-14T02:47:40.436Z,46.44
2023-04-14T02:48:08.586Z,46.39
2023-04-14T02:48:34.646Z,46.51
2023-04-14T02:49:01.739Z,46.32
2023-04-14T02:49:26.199Z,46.58
2023-04-14T02:49:50.506Z,46.47
2023-04-14T02:50:18.277Z,46.36
2023-04-14T02:50:53.620Z,46.25
2023-04-14T02:51:21.124Z,46.32
2023-04-14T02:51:45.792Z,46.18
2023-04-14T02:52:11.729Z,46.21
2023-04-14T02:52:35.430Z,46.46
2023-04-14T02:52:59.611Z,46.26
2023-04-14T02:53:26.914Z,46.24
2023-04-14T02:54:00.032Z,46.28
2023-04-14T02:54:35.851Z,46.51
2023-04-14T02:54:59.117Z,46.41
2023-04-14T02:55:23.697Z,46.30
2023-04-14T02:55:51.408Z,46.42
2023-04-14T02:56:14.227Z,46.66
2023-04-14T02:56:39.105Z,46.55
2023-04-14T02:57:02.882Z,46.77
2023-04-14T02:57:27.656Z,46.63
2023-04-14T02:57:50.443Z,46.61
2023-04-14T02:58:14.081Z,46.81
2023-04-14T02:58:37.967Z,46.78
2023-04-14T02:59:00.612Z,46.83
2023-04-14T02:59:24.822Z,46.83
2023-04-14T02:59:56.003Z,47.07
2023-04-14T03:00:18.898Z,47.28
2023-04-14T03:00:45.038Z,47.23
2023-04-14T03:01:07.836Z,47.19
2023-04-14T03:01:33.138Z,47.26
2023-04-14T03:01:57.560Z,47.25
2023-04-14T03:02:24.983Z,47.17
2023-04-14T03:02:58.988Z,47.29
2023-04-14T03:03:21.252Z,47.31
2023-04-14T03:03:43.883Z,47.32
2023-04-14T03:04:08.235Z,47.50
2023-04-14T03:04:31.649Z,47.35
2023-04-14T03:04:57.109Z,47.42
2023-04-14T03:05:29.687Z,47.31
2023-04-14T03:06:00.164Z,47.31
2023-04-14T03:06:24.419Z,47.12
2023-04-14T03:06:47.810Z,47.11
2023-04-14T03:07:11.961Z,47.10
2023-04-14T03:07:34.688Z,47.03
2023-04-14T03:07:57.044Z,47.22
2023-04-14T03:08:20.404Z,46.97
2023-04-14T03:08:47.459Z,46.89
2023-04-14T03:09:09.559Z,46.56
2023-04-14T03:09:32.236Z,46.54
2023-04-14T03:09:56.421Z,46.53
2023-04-14T03:10:20.002Z,46.65
2023-04-14T03:10:45.364Z,46.83
2023-04-14T03:11:08.885Z,46.88
2023-04-14T03:11:33.207Z,46.81
2023-04-14T03:11:55.957Z,46.48
2023-04-14T03:12:19.172Z,46.63
2023-04-14T03:12:43.137Z,46.63
2023-04-14T03:13:08.782Z,46.46
2023-04-14T03:13:33.909Z,46.42
2023-04-14T03:13:57.555Z,46.51
2023-04-14T03:14:22.725Z,46.53
2023-04-14T03:14:44.879Z,46.56
2023-04-14T03:15:08.130Z,46.59
2023-04-14T03:15:31.657Z,46.56
2023-04-14T03:15:55.048Z,46.52
2023-04-14T03:16:20.290Z,46.63
2023-04-14T03:16:42.707Z,46.73
2023-04-14T03:17:05.709Z,46.61
2023-04-14T03:17:30.904Z,46.48
2023-04-14T03:17:55.842Z,46.41
2023-04-14T03:18:19.821Z,46.53
2023-04-14T03:18:42.468Z,46.58
2023-04-14T03:19:07.861Z,46.59
2023-04-14T03:19:32.205Z,46.76
2023-04-14T03:19:54.622Z,46.79
2023-04-14T03:20:20.134Z,46.85
2023-04-14T03:20:45.306Z,46.93
2023-04-14T03:21:07.692Z,46.89
2023-04-14T03:21:30.797Z,46.72
2023-04-14T03:21:55.288Z,47.04
2023-04-14T03:22:20.636Z,46.88
2023-04-14T03:22:44.141Z,47.08
2023-04-14T03:23:13.934Z,46.98
2023-04-14T03:23:42.741Z,47.15
2023-04-14T03:24:06.600Z,46.87
2023-04-14T03:24:31.541Z,46.83
2023-04-14T03:24:58.611Z,46.89
2023-04-14T03:25:22.812Z,46.70
2023-04-14T03:25:47.529Z,46.64
2023-04-14T03:26:19.137Z,46.87
2023-04-14T03:26:43.281Z,46.71
2023-04-14T03:27:09.330Z,46.64
2023-04-14T03:27:33.950Z,46.55
2023-04-14T03:28:02.579Z,46.52
2023-04-14T03:28:29.148Z,46.57
2023-04-14T03:28:55.852Z,46.43
2023-04-14T03:29:21.596Z,46.42
2023-04-14T03:29:47.620Z,46.49
2023-04-14T03:30:14.833Z,46.46
2023-04-14T03:30:42.355Z,46.81
2023-04-14T03:31:07.788Z,46.65
2023-04-14T03:31:47.030Z,46.46
2023-04-14T03:32:11.151Z,46.52
2023-04-14T03:32:43.420Z,46.44
2023-04-14T03:33:11.870Z,46.47
2023-04-14T03:33:34.050Z,46.27
2023-04-14T03:33:58.426Z,46.49
2023-04-14T03:34:30.914Z,46.47
2023-04-14T03:34:56.822Z,46.52
2023-04-14T03:35:21.852Z,46.64
2023-04-14T03:35:45.639Z,46.64
2023-04-14T03:36:09.645Z,46.64
2023-04-14T03:36:32.870Z,46.61
2023-04-14T03:36:57.162Z,46.61
2023-04-14T03:37:24.407Z,46.60
2023-04-14T03:37:49.576Z,46.37
2023-04-14T03:38:12.801Z,46.45
2023-04-14T03:38:36.948Z,46.56
2023-04-14T03:39:02.020Z,46.39
2023-04-14T03:39:31.746Z,46.37
2023-04-14T03:39:58.690Z,46.26
2023-04-14T03:40:22.145Z,46.29
2023-04-14T03:40:47.786Z,46.33
2023-04-14T03:41:15.819Z,46.49
2023-04-14T03:41:39.653Z,46.40
2023-04-14T03:42:03.422Z,46.37
2023-04-14T03:42:28.715Z,46.49
2023-04-14T03:42:52.406Z,46.49
2023-04-14T03:43:20.023Z,46.50
2023-04-14T03:43:42.820Z,46.46
2023-04-14T03:44:15.480Z,46.52
2023-04-14T03:44:43.004Z,46.57
2023-04-14T03:45:05.464Z,46.62
2023-04-14T03:45:30.021Z,46.56
2023-04-14T03:45:52.380Z,46.58
2023-04-14T03:46:15.881Z,46.41
2023-04-14T03:46:41.017Z,46.59
2023-04-14T03:47:04.070Z,46.65
2023-04-14T03:47:28.668Z,46.74
2023-04-14T03:48:05.103Z,46.61
2023-04-14T03:48:35.793Z,46.69
2023-04-14T03:48:59.539Z,46.74
2023-04-14T03:49:26.502Z,46.75
2023-04-14T03:49:52.048Z,46.78
2023-04-14T03:50:16.364Z,46.78
2023-04-14T03:50:42.041Z,46.88
2023-04-14T03:51:09.017Z,46.91
2023-04-14T03:51:33.051Z,46.87
2023-04-14T03:51:59.609Z,46.72
2023-04-14T03:52:23.652Z,46.75
2023-04-14T03:52:47.860Z,46.83
2023-04-14T03:53:12.600Z,46.77
2023-04-14T03:53:36.484Z,46.76
2023-04-14T03:54:00.686Z,46.79
2023-04-14T03:54:25.580Z,46.87
2023-04-14T03:54:48.098Z,46.79
2023-04-14T03:55:12.467Z,46.88
2023-04-14T03:55:37.701Z,46.99
2023-04-14T03:55:59.965Z,47.05
2023-04-14T03:56:22.915Z,47.20
2023-04-14T03:56:48.217Z,47.06
2023-04-14T03:57:14.672Z,47.12
2023-04-14T03:57:39.838Z,47.17
2023-04-14T03:58:03.137Z,47.23
2023-04-14T03:58:26.933Z,46.99
2023-04-14T03:58:52.509Z,47.13
2023-04-14T03:59:17.947Z,47.01
2023-04-14T03:59:41.727Z,47.18
2023-04-14T04:00:08.391Z,47.24
2023-04-14T04:00:39.084Z,47.10
2023-04-14T04:01:02.837Z,46.96
2023-04-14T04:01:26.823Z,46.83
2023-04-14T04:01:49.589Z,46.79
2023-04-14T04:02:13.902Z,46.83
2023-04-14T04:02:37.367Z,47.05
2023-04-14T04:03:02.642Z,46.97
2023-04-14T04:03:26.867Z,46.82
2023-04-14T04:03:50.040Z,46.85
2023-04-14T04:04:12.648Z,46.83
2023-04-14T04:04:37.362Z,46.89
2023-04-14T04:04:59.930Z,46.84
2023-04-14T04:05:23.547Z,46.80
2023-04-14T04:05:45.969Z,46.64
2023-04-14T04:06:08.480Z,46.77
2023-04-14T04:06:31.564Z,46.78
2023-04-14T04:06:54.749Z,46.66
2023-04-14T04:07:19.352Z,46.75
2023-04-14T04:07:41.716Z,46.67
2023-04-14T04:08:05.137Z,46.76
2023-04-14T04:08:28.235Z,46.65
2023-04-14T04:08:51.226Z,46.79
2023-04-14T04:09:14.685Z,46.67
2023-04-14T04:09:38.058Z,46.61
2023-04-14T04:10:00.563Z,46.65
2023-04-14T04:10:23.569Z,46.74
2023-04-14T04:10:48.415Z,46.71
2023-04-14T04:11:13.217Z,46.75
2023-04-14T04:11:35.814Z,46.78
2023-04-14T04:12:02.099Z,46.88
2023-04-14T04:12:28.013Z,46.84
2023-04-14T04:12:50.543Z,46.81
2023-04-14T04:13:16.382Z,47.04
2023-04-14T04:13:41.884Z,46.85
2023-04-14T04:14:06.980Z,46.97
2023-04-14T04:14:32.815Z,46.84
2023-04-14T04:14:54.868Z,47.11
2023-04-14T04:15:17.378Z,47.03
2023-04-14T04:15:41.533Z,47.00
2023-04-14T04:16:08.861Z,47.01
2023-04-14T04:16:31.974Z,46.95
2023-04-14T04:16:59.488Z,46.91
2023-04-14T04:17:24.741Z,47.00
2023-04-14T04:17:48.920Z,47.06
2023-04-14T04:18:16.611Z,47.13
2023-04-14T04:18:39.568Z,47.02
2023-04-14T04:19:07.462Z,47.06
2023-04-14T04:19:31.064Z,46.96
2023-04-14T04:19:56.797Z,47.09
2023-04-14T04:20:21.124Z,46.98
2023-04-14T04:20:46.119Z,46.96
2023-04-14T04:21:10.300Z,47.05
2023-04-14T04:21:35.048Z,46.98
2023-04-14T04:21:59.794Z,46.97
2023-04-14T04:22:27.320Z,46.91
2023-04-14T04:22:52.039Z,47.04
2023-04-14T04:23:17.864Z,47.02
2023-04-14T04:23:41.889Z,46.92
2023-04-14T04:24:07.128Z,46.75
2023-04-14T04:24:32.917Z,46.67
2023-04-14T04:24:56.068Z,46.47
2023-04-14T04:25:22.468Z,46.78
2023-04-14T04:25:57.425Z,46.86
2023-04-14T04:26:26.288Z,46.73
2023-04-14T04:26:48.920Z,46.90
2023-04-14T04:27:24.459Z,47.08
2023-04-14T04:27:51.161Z,47.06
2023-04-14T04:28:13.235Z,47.10
2023-04-14T04:28:36.587Z,47.10
2023-04-14T04:28:58.823Z,46.98
2023-04-14T04:29:23.857Z,47.47
2023-04-14T04:29:48.004Z,47.34
2023-04-14T04:30:12.308Z,47.40
2023-04-14T04:30:35.323Z,47.42
2023-04-14T04:30:59.066Z,47.49
2023-04-14T04:31:23.636Z,47.62
2023-04-14T04:31:45.707Z,47.51
2023-04-14T04:32:08.526Z,47.50
2023-04-14T04:32:30.358Z,47.39
2023-04-14T04:32:55.599Z,47.38
2023-04-14T04:33:20.186Z,47.35
2023-04-14T04:33:44.266Z,47.32
2023-04-14T04:34:07.735Z,47.41
2023-04-14T04:34:34.558Z,47.27
2023-04-14T04:34:58.507Z,47.25
2023-04-14T04:35:23.095Z,47.26
2023-04-14T04:35:46.115Z,47.18
2023-04-14T04:36:08.432Z,47.43
2023-04-14T04:36:37.003Z,47.36
2023-04-14T04:37:00.710Z,47.37
2023-04-14T04:37:28.173Z,47.18
2023-04-14T04:37:51.526Z,47.26
2023-04-14T04:38:13.381Z,47.19
2023-04-14T04:38:39.409Z,47.08
2023-04-14T04:39:01.287Z,47.04
2023-04-14T04:39:25.446Z,47.14
2023-04-14T04:39:48.466Z,47.18
2023-04-14T04:40:13.182Z,47.22
2023-04-14T04:40:38.819Z,47.27
2023-04-14T04:41:06.587Z,47.51
2023-04-14T04:41:30.644Z,47.26
2023-04-14T04:42:02.173Z,47.19
2023-04-14T04:42:23.831Z,47.25
2023-04-14T04:42:45.667Z,47.16
2023-04-14T04:43:11.554Z,47.11
2023-04-14T04:43:33.238Z,47.14
2023-04-14T04:43:56.895Z,47.11
2023-04-14T04:44:18.647Z,46.93
2023-04-14T04:44:41.560Z,46.96
2023-04-14T04:45:04.052Z,46.90
2023-04-14T04:45:45.278Z,46.89
2023-04-14T04:46:33.203Z,47.05
2023-04-14T04:46:55.996Z,46.86
2023-04-14T04:47:20.670Z,46.93
2023-04-14T04:47:43.316Z,46.78
2023-04-14T04:48:05.625Z,46.87
2023-04-14T04:48:29.339Z,46.92
2023-04-14T04:48:54.142Z,46.89
2023-04-14T04:49:16.838Z,46.99
2023-04-14T04:49:39.450Z,46.97
2023-04-14T04:50:01.052Z,47.07
2023-04-14T04:50:22.688Z,47.00
2023-04-14T04:50:47.688Z,47.10
2023-04-14T04:51:09.381Z,47.07
2023-04-14T04:51:31.133Z,46.97
2023-04-14T04:51:53.197Z,47.05
2023-04-14T04:52:16.242Z,47.08
2023-04-14T04:52:38.906Z,47.01
2023-04-14T04:53:00.611Z,46.83
2023-04-14T04:53:22.479Z,46.73
2023-04-14T04:53:45.685Z,46.84
2023-04-14T04:54:07.651Z,46.69
2023-04-14T04:54:29.864Z,46.83
2023-04-14T04:54:52.959Z,46.85
2023-04-14T04:55:15.767Z,46.88
2023-04-14T04:55:37.646Z,46.82
2023-04-14T04:55:59.214Z,46.69
2023-04-14T04:56:21.944Z,46.77
2023-04-14T04:56:44.796Z,46.91
2023-04-14T04:57:07.020Z,46.75
2023-04-14T04:57:28.716Z,46.89
2023-04-14T04:57:50.374Z,46.90
2023-04-14T04:58:14.746Z,47.05
2023-04-14T04:58:36.439Z,46.85
2023-04-14T04:58:59.304Z,46.76
2023-04-14T04:59:21.644Z,46.85
2023-04-14T04:59:44.336Z,46.92
2023-04-14T05:00:08.883Z,47.00
2023-04-14T05:00:33.309Z,46.92
2023-04-14T05:00:57.212Z,46.96
2023-04-14T05:01:21.745Z,46.89
2023-04-14T05:01:44.045Z,46.91
2023-04-14T05:02:07.665Z,46.89
2023-04-14T05:02:30.614Z,47.00
2023-04-14T05:02:56.725Z,47.03
2023-04-14T05:03:18.563Z,47.02
2023-04-14T05:03:44.788Z,47.16
2023-04-14T05:04:07.691Z,47.14
2023-04-14T05:04:29.410Z,47.08
2023-04-14T05:04:51.560Z,47.02
2023-04-14T05:05:13.402Z,47.05
2023-04-14T05:05:37.037Z,47.02
2023-04-14T05:05:59.018Z,47.01
2023-04-14T05:06:20.613Z,47.18
2023-04-14T05:06:42.203Z,47.24
2023-04-14T05:07:04.819Z,47.40
2023-04-14T05:07:26.530Z,47.45
2023-04-14T05:07:48.110Z,47.57
2023-04-14T05:08:09.716Z,47.82
2023-04-14T05:08:32.267Z,47.71
2023-04-14T05:08:54.905Z,47.72
2023-04-14T05:09:16.581Z,47.67
2023-04-14T05:09:38.298Z,47.76
2023-04-14T05:10:00.900Z,47.66
2023-04-14T05:10:23.569Z,47.84
2023-04-14T05:10:45.285Z,47.68
2023-04-14T05:11:06.977Z,47.61
2023-04-14T05:11:28.625Z,47.60
2023-04-14T05:11:51.249Z,47.48
2023-04-14T05:12:12.872Z,47.54
2023-04-14T05:12:35.096Z,47.60
2023-04-14T05:12:56.699Z,47.67
2023-04-14T05:13:19.335Z,47.46
2023-04-14T05:13:40.885Z,47.39
2023-04-14T05:14:02.788Z,47.41
2023-04-14T05:14:26.301Z,47.36
2023-04-14T05:14:49.901Z,47.48
2023-04-14T05:15:12.520Z,47.38
2023-04-14T05:15:34.146Z,47.39
2023-04-14T05:16:02.726Z,47.26
2023-04-14T05:16:25.563Z,47.38
2023-04-14T05:16:47.217Z,47.14
2023-04-14T05:17:08.878Z,47.08
2023-04-14T05:17:30.466Z,47.46
2023-04-14T05:17:53.056Z,47.45
2023-04-14T05:18:14.818Z,47.44
2023-04-14T05:18:36.981Z,47.24
2023-04-14T05:19:00.077Z,47.23
2023-04-14T05:19:23.150Z,47.22
2023-04-14T05:19:44.723Z,47.06
2023-04-14T05:20:07.232Z,47.13
2023-04-14T05:20:29.169Z,47.08
2023-04-14T05:20:51.731Z,46.96
2023-04-14T05:21:14.572Z,47.00
2023-04-14T05:21:36.234Z,46.85